sensor_id;sensor_type;location;lat;lon;timestamp;P1;durP1;ratioP1;P2;durP2;ratioP2
60502;SDS011;51448;51.660;5.824;2023-11-19T00:00:19;7.40;;;6.70;;
60502;SDS011;51448;51.660;5.824;2023-11-19T00:02:47;6.97;;;6.35;;
60502;SDS011;51448;51.660;5.824;2023-11-19T00:05:15;10.77;;;7.38;;
60502;SDS011;51448;51.660;5.824;2023-11-19T00:07:48;9.38;;;6.65;;
60502;SDS011;51448;51.660;5.824;2023-11-19T00:14:35;7.65;;;6.85;;
60502;SDS011;51448;51.660;5.824;2023-11-19T00:17:03;11.65;;;7.03;;
60502;SDS011;51448;51.660;5.824;2023-11-19T00:19:31;10.00;;;7.82;;
60502;SDS011;51448;51.660;5.824;2023-11-19T00:21:59;11.05;;;7.97;;
60502;SDS011;51448;51.660;5.824;2023-11-19T00:24:30;13.47;;;7.70;;
60502;SDS011;51448;51.660;5.824;2023-11-19T00:26:58;12.00;;;8.20;;
60502;SDS011;51448;51.660;5.824;2023-11-19T00:29:25;11.90;;;8.85;;
60502;SDS011;51448;51.660;5.824;2023-11-19T00:31:53;9.25;;;7.88;;
60502;SDS011;51448;51.660;5.824;2023-11-19T00:34:21;10.93;;;7.53;;
60502;SDS011;51448;51.660;5.824;2023-11-19T00:36:49;12.13;;;7.53;;
60502;SDS011;51448;51.660;5.824;2023-11-19T00:39:17;11.00;;;7.40;;
60502;SDS011;51448;51.660;5.824;2023-11-19T00:41:45;14.48;;;8.25;;
60502;SDS011;51448;51.660;5.824;2023-11-19T00:44:13;14.50;;;6.88;;
60502;SDS011;51448;51.660;5.824;2023-11-19T00:46:41;9.98;;;6.85;;
60502;SDS011;51448;51.660;5.824;2023-11-19T00:49:09;12.75;;;7.20;;
60502;SDS011;51448;51.660;5.824;2023-11-19T00:51:39;9.23;;;6.50;;
60502;SDS011;51448;51.660;5.824;2023-11-19T00:54:06;9.48;;;6.88;;
60502;SDS011;51448;51.660;5.824;2023-11-19T00:56:34;12.18;;;6.70;;
60502;SDS011;51448;51.660;5.824;2023-11-19T00:59:02;16.63;;;6.97;;
60502;SDS011;51448;51.660;5.824;2023-11-19T01:01:31;12.98;;;6.50;;
60502;SDS011;51448;51.660;5.824;2023-11-19T01:03:58;9.70;;;5.90;;
60502;SDS011;51448;51.660;5.824;2023-11-19T01:06:30;11.73;;;5.63;;
60502;SDS011;51448;51.660;5.824;2023-11-19T01:08:58;15.70;;;6.82;;
60502;SDS011;51448;51.660;5.824;2023-11-19T01:11:26;11.80;;;5.43;;
60502;SDS011;51448;51.660;5.824;2023-11-19T01:13:53;10.07;;;6.05;;
60502;SDS011;51448;51.660;5.824;2023-11-19T01:16:21;12.80;;;6.60;;
60502;SDS011;51448;51.660;5.824;2023-11-19T01:18:50;11.50;;;6.00;;
60502;SDS011;51448;51.660;5.824;2023-11-19T01:21:22;12.20;;;5.82;;
60502;SDS011;51448;51.660;5.824;2023-11-19T01:23:49;11.27;;;5.82;;
60502;SDS011;51448;51.660;5.824;2023-11-19T01:26:17;9.82;;;4.70;;
60502;SDS011;51448;51.660;5.824;2023-11-19T01:28:45;13.00;;;5.30;;
60502;SDS011;51448;51.660;5.824;2023-11-19T01:31:16;12.70;;;5.07;;
60502;SDS011;51448;51.660;5.824;2023-11-19T01:33:44;14.88;;;5.05;;
60502;SDS011;51448;51.660;5.824;2023-11-19T01:36:13;14.05;;;5.35;;
60502;SDS011;51448;51.660;5.824;2023-11-19T01:38:41;13.23;;;4.38;;
60502;SDS011;51448;51.660;5.824;2023-11-19T01:41:09;12.02;;;4.55;;
60502;SDS011;51448;51.660;5.824;2023-11-19T01:43:37;17.60;;;5.22;;
60502;SDS011;51448;51.660;5.824;2023-11-19T01:46:09;13.02;;;4.20;;
60502;SDS011;51448;51.660;5.824;2023-11-19T01:48:40;14.18;;;4.72;;
60502;SDS011;51448;51.660;5.824;2023-11-19T01:51:12;14.13;;;4.32;;
60502;SDS011;51448;51.660;5.824;2023-11-19T01:53:43;18.27;;;4.37;;
60502;SDS011;51448;51.660;5.824;2023-11-19T01:56:13;16.98;;;4.72;;
60502;SDS011;51448;51.660;5.824;2023-11-19T01:58:43;12.00;;;3.92;;
60502;SDS011;51448;51.660;5.824;2023-11-19T02:01:13;12.60;;;4.20;;
60502;SDS011;51448;51.660;5.824;2023-11-19T02:03:41;19.42;;;4.80;;
60502;SDS011;51448;51.660;5.824;2023-11-19T02:06:09;15.68;;;4.35;;
60502;SDS011;51448;51.660;5.824;2023-11-19T02:08:39;17.23;;;4.78;;
60502;SDS011;51448;51.660;5.824;2023-11-19T02:11:07;14.32;;;4.07;;
60502;SDS011;51448;51.660;5.824;2023-11-19T02:13:36;18.02;;;4.70;;
60502;SDS011;51448;51.660;5.824;2023-11-19T02:16:06;24.73;;;5.33;;
60502;SDS011;51448;51.660;5.824;2023-11-19T02:18:37;20.08;;;5.30;;
60502;SDS011;51448;51.660;5.824;2023-11-19T02:21:04;16.45;;;4.63;;
60502;SDS011;51448;51.660;5.824;2023-11-19T02:23:32;15.55;;;4.72;;
60502;SDS011;51448;51.660;5.824;2023-11-19T02:29:14;16.75;;;4.18;;
60502;SDS011;51448;51.660;5.824;2023-11-19T02:31:42;21.30;;;4.78;;
60502;SDS011;51448;51.660;5.824;2023-11-19T02:34:13;15.70;;;3.65;;
60502;SDS011;51448;51.660;5.824;2023-11-19T02:36:41;18.13;;;4.28;;
60502;SDS011;51448;51.660;5.824;2023-11-19T02:39:08;13.07;;;3.97;;
60502;SDS011;51448;51.660;5.824;2023-11-19T02:41:39;14.48;;;5.00;;
60502;SDS011;51448;51.660;5.824;2023-11-19T02:44:07;19.25;;;5.18;;
60502;SDS011;51448;51.660;5.824;2023-11-19T02:46:35;14.50;;;4.55;;
60502;SDS011;51448;51.660;5.824;2023-11-19T02:49:02;14.57;;;3.92;;
60502;SDS011;51448;51.660;5.824;2023-11-19T02:51:30;15.70;;;5.10;;
60502;SDS011;51448;51.660;5.824;2023-11-19T02:53:59;23.75;;;5.07;;
60502;SDS011;51448;51.660;5.824;2023-11-19T02:56:26;19.02;;;4.43;;
60502;SDS011;51448;51.660;5.824;2023-11-19T02:58:56;19.33;;;4.82;;
60502;SDS011;51448;51.660;5.824;2023-11-19T03:01:24;22.80;;;5.55;;
60502;SDS011;51448;51.660;5.824;2023-11-19T03:03:59;23.13;;;6.28;;
60502;SDS011;51448;51.660;5.824;2023-11-19T03:06:30;23.67;;;6.40;;
60502;SDS011;51448;51.660;5.824;2023-11-19T03:08:57;24.75;;;5.65;;
60502;SDS011;51448;51.660;5.824;2023-11-19T03:11:25;21.75;;;4.97;;
60502;SDS011;51448;51.660;5.824;2023-11-19T03:13:53;21.67;;;5.47;;
60502;SDS011;51448;51.660;5.824;2023-11-19T03:16:21;20.42;;;5.82;;
60502;SDS011;51448;51.660;5.824;2023-11-19T03:21:26;27.65;;;6.95;;
60502;SDS011;51448;51.660;5.824;2023-11-19T03:23:58;25.08;;;5.90;;
60502;SDS011;51448;51.660;5.824;2023-11-19T03:26:29;22.73;;;5.63;;
60502;SDS011;51448;51.660;5.824;2023-11-19T03:28:56;27.40;;;6.35;;
60502;SDS011;51448;51.660;5.824;2023-11-19T03:31:31;29.58;;;6.18;;
60502;SDS011;51448;51.660;5.824;2023-11-19T03:33:58;23.20;;;6.03;;
60502;SDS011;51448;51.660;5.824;2023-11-19T03:36:34;22.23;;;4.90;;
60502;SDS011;51448;51.660;5.824;2023-11-19T03:39:01;23.85;;;6.43;;
60502;SDS011;51448;51.660;5.824;2023-11-19T03:41:31;24.92;;;5.82;;
60502;SDS011;51448;51.660;5.824;2023-11-19T03:44:01;30.35;;;6.07;;
60502;SDS011;51448;51.660;5.824;2023-11-19T03:46:30;36.80;;;6.05;;
60502;SDS011;51448;51.660;5.824;2023-11-19T03:48:58;24.90;;;5.30;;
60502;SDS011;51448;51.660;5.824;2023-11-19T03:51:26;27.55;;;5.35;;
60502;SDS011;51448;51.660;5.824;2023-11-19T03:53:54;30.23;;;6.30;;
60502;SDS011;51448;51.660;5.824;2023-11-19T03:56:23;28.33;;;5.03;;
60502;SDS011;51448;51.660;5.824;2023-11-19T03:58:51;24.50;;;5.55;;
60502;SDS011;51448;51.660;5.824;2023-11-19T04:01:20;33.97;;;6.45;;
60502;SDS011;51448;51.660;5.824;2023-11-19T04:03:48;21.70;;;4.30;;
60502;SDS011;51448;51.660;5.824;2023-11-19T04:06:17;28.25;;;5.22;;
60502;SDS011;51448;51.660;5.824;2023-11-19T04:08:46;24.85;;;5.60;;
60502;SDS011;51448;51.660;5.824;2023-11-19T04:11:14;26.70;;;5.28;;
60502;SDS011;51448;51.660;5.824;2023-11-19T04:13:42;29.42;;;6.72;;
60502;SDS011;51448;51.660;5.824;2023-11-19T04:16:09;31.15;;;6.28;;
60502;SDS011;51448;51.660;5.824;2023-11-19T04:18:37;29.15;;;5.40;;
60502;SDS011;51448;51.660;5.824;2023-11-19T04:21:05;27.30;;;5.15;;
60502;SDS011;51448;51.660;5.824;2023-11-19T04:23:34;36.95;;;5.30;;
60502;SDS011;51448;51.660;5.824;2023-11-19T04:26:02;31.77;;;5.63;;
60502;SDS011;51448;51.660;5.824;2023-11-19T04:28:34;34.15;;;6.25;;
60502;SDS011;51448;51.660;5.824;2023-11-19T04:31:02;35.90;;;5.38;;
60502;SDS011;51448;51.660;5.824;2023-11-19T04:33:31;32.08;;;6.00;;
60502;SDS011;51448;51.660;5.824;2023-11-19T04:35:58;24.17;;;4.68;;
60502;SDS011;51448;51.660;5.824;2023-11-19T04:38:26;42.00;;;7.40;;
60502;SDS011;51448;51.660;5.824;2023-11-19T04:40:54;30.65;;;5.65;;
60502;SDS011;51448;51.660;5.824;2023-11-19T04:43:24;32.22;;;6.28;;
60502;SDS011;51448;51.660;5.824;2023-11-19T04:45:52;29.17;;;4.72;;
60502;SDS011;51448;51.660;5.824;2023-11-19T04:48:20;32.83;;;7.30;;
60502;SDS011;51448;51.660;5.824;2023-11-19T04:50:47;25.63;;;5.15;;
60502;SDS011;51448;51.660;5.824;2023-11-19T04:53:15;34.80;;;7.97;;
60502;SDS011;51448;51.660;5.824;2023-11-19T04:55:43;28.95;;;6.07;;
60502;SDS011;51448;51.660;5.824;2023-11-19T04:58:10;33.88;;;6.55;;
60502;SDS011;51448;51.660;5.824;2023-11-19T05:00:38;34.05;;;7.07;;
60502;SDS011;51448;51.660;5.824;2023-11-19T05:03:06;31.05;;;6.47;;
60502;SDS011;51448;51.660;5.824;2023-11-19T05:05:33;28.17;;;6.75;;
60502;SDS011;51448;51.660;5.824;2023-11-19T05:08:01;28.73;;;6.07;;
60502;SDS011;51448;51.660;5.824;2023-11-19T05:10:29;31.52;;;6.43;;
60502;SDS011;51448;51.660;5.824;2023-11-19T05:12:57;38.95;;;7.80;;
60502;SDS011;51448;51.660;5.824;2023-11-19T05:15:24;33.17;;;7.90;;
60502;SDS011;51448;51.660;5.824;2023-11-19T05:17:52;31.63;;;6.70;;
60502;SDS011;51448;51.660;5.824;2023-11-19T05:20:20;41.92;;;8.20;;
60502;SDS011;51448;51.660;5.824;2023-11-19T05:22:49;37.45;;;6.80;;
60502;SDS011;51448;51.660;5.824;2023-11-19T05:25:19;34.10;;;6.70;;
60502;SDS011;51448;51.660;5.824;2023-11-19T05:27:47;37.83;;;7.88;;
60502;SDS011;51448;51.660;5.824;2023-11-19T05:30:16;39.97;;;6.85;;
60502;SDS011;51448;51.660;5.824;2023-11-19T05:32:44;30.42;;;6.63;;
60502;SDS011;51448;51.660;5.824;2023-11-19T05:35:11;30.52;;;6.55;;
60502;SDS011;51448;51.660;5.824;2023-11-19T05:37:39;34.97;;;6.38;;
60502;SDS011;51448;51.660;5.824;2023-11-19T05:40:07;30.80;;;7.80;;
60502;SDS011;51448;51.660;5.824;2023-11-19T05:42:42;34.30;;;5.82;;
60502;SDS011;51448;51.660;5.824;2023-11-19T05:45:11;34.67;;;6.85;;
60502;SDS011;51448;51.660;5.824;2023-11-19T05:47:40;27.58;;;7.22;;
60502;SDS011;51448;51.660;5.824;2023-11-19T05:50:09;29.38;;;6.53;;
60502;SDS011;51448;51.660;5.824;2023-11-19T05:52:37;37.30;;;6.65;;
60502;SDS011;51448;51.660;5.824;2023-11-19T05:55:05;37.22;;;6.53;;
60502;SDS011;51448;51.660;5.824;2023-11-19T05:57:37;29.40;;;5.70;;
60502;SDS011;51448;51.660;5.824;2023-11-19T06:00:08;34.73;;;7.07;;
60502;SDS011;51448;51.660;5.824;2023-11-19T06:02:37;34.03;;;6.43;;
60502;SDS011;51448;51.660;5.824;2023-11-19T06:05:05;32.90;;;6.07;;
60502;SDS011;51448;51.660;5.824;2023-11-19T06:07:33;32.92;;;5.90;;
60502;SDS011;51448;51.660;5.824;2023-11-19T06:10:02;29.10;;;5.97;;
60502;SDS011;51448;51.660;5.824;2023-11-19T06:12:36;30.02;;;6.45;;
60502;SDS011;51448;51.660;5.824;2023-11-19T06:15:05;27.00;;;5.78;;
60502;SDS011;51448;51.660;5.824;2023-11-19T06:17:35;37.92;;;7.28;;
60502;SDS011;51448;51.660;5.824;2023-11-19T06:20:04;29.90;;;6.22;;
60502;SDS011;51448;51.660;5.824;2023-11-19T06:22:32;34.42;;;6.97;;
60502;SDS011;51448;51.660;5.824;2023-11-19T06:25:00;26.67;;;5.40;;
60502;SDS011;51448;51.660;5.824;2023-11-19T06:27:30;36.72;;;7.43;;
60502;SDS011;51448;51.660;5.824;2023-11-19T06:29:58;31.58;;;5.95;;
60502;SDS011;51448;51.660;5.824;2023-11-19T06:32:26;31.92;;;7.13;;
60502;SDS011;51448;51.660;5.824;2023-11-19T06:34:53;35.58;;;6.78;;
60502;SDS011;51448;51.660;5.824;2023-11-19T06:37:21;30.42;;;6.18;;
60502;SDS011;51448;51.660;5.824;2023-11-19T06:39:50;34.72;;;6.60;;
60502;SDS011;51448;51.660;5.824;2023-11-19T06:42:17;32.80;;;7.18;;
60502;SDS011;51448;51.660;5.824;2023-11-19T06:44:45;38.00;;;7.82;;
60502;SDS011;51448;51.660;5.824;2023-11-19T06:47:13;35.80;;;5.78;;
60502;SDS011;51448;51.660;5.824;2023-11-19T06:49:43;36.58;;;6.90;;
60502;SDS011;51448;51.660;5.824;2023-11-19T06:52:12;29.77;;;6.00;;
60502;SDS011;51448;51.660;5.824;2023-11-19T06:54:39;33.60;;;6.82;;
60502;SDS011;51448;51.660;5.824;2023-11-19T06:57:07;32.50;;;6.03;;
60502;SDS011;51448;51.660;5.824;2023-11-19T06:59:36;39.60;;;5.90;;
60502;SDS011;51448;51.660;5.824;2023-11-19T07:02:05;27.88;;;5.22;;
60502;SDS011;51448;51.660;5.824;2023-11-19T07:04:33;39.65;;;7.38;;
60502;SDS011;51448;51.660;5.824;2023-11-19T07:07:01;39.60;;;7.47;;
60502;SDS011;51448;51.660;5.824;2023-11-19T07:09:29;35.55;;;7.10;;
60502;SDS011;51448;51.660;5.824;2023-11-19T07:11:56;42.95;;;7.53;;
60502;SDS011;51448;51.660;5.824;2023-11-19T07:14:31;32.00;;;5.78;;
60502;SDS011;51448;51.660;5.824;2023-11-19T07:16:59;30.05;;;6.22;;
60502;SDS011;51448;51.660;5.824;2023-11-19T07:19:27;32.55;;;6.97;;
60502;SDS011;51448;51.660;5.824;2023-11-19T07:21:54;30.60;;;6.43;;
60502;SDS011;51448;51.660;5.824;2023-11-19T07:24:23;38.70;;;6.32;;
60502;SDS011;51448;51.660;5.824;2023-11-19T07:26:51;29.13;;;6.72;;
60502;SDS011;51448;51.660;5.824;2023-11-19T07:29:19;31.50;;;6.40;;
60502;SDS011;51448;51.660;5.824;2023-11-19T07:31:52;33.13;;;7.22;;
60502;SDS011;51448;51.660;5.824;2023-11-19T07:34:19;39.95;;;6.57;;
60502;SDS011;51448;51.660;5.824;2023-11-19T07:36:48;33.47;;;6.57;;
60502;SDS011;51448;51.660;5.824;2023-11-19T07:39:16;36.55;;;5.90;;
60502;SDS011;51448;51.660;5.824;2023-11-19T07:41:44;41.58;;;8.18;;
60502;SDS011;51448;51.660;5.824;2023-11-19T07:44:12;32.40;;;6.93;;
60502;SDS011;51448;51.660;5.824;2023-11-19T07:46:40;32.55;;;6.68;;
60502;SDS011;51448;51.660;5.824;2023-11-19T07:49:09;38.67;;;6.70;;
60502;SDS011;51448;51.660;5.824;2023-11-19T07:51:37;36.60;;;5.75;;
60502;SDS011;51448;51.660;5.824;2023-11-19T07:54:05;38.65;;;6.80;;
60502;SDS011;51448;51.660;5.824;2023-11-19T07:56:33;42.15;;;6.90;;
60502;SDS011;51448;51.660;5.824;2023-11-19T07:59:04;35.85;;;7.15;;
60502;SDS011;51448;51.660;5.824;2023-11-19T08:01:32;32.50;;;6.50;;
60502;SDS011;51448;51.660;5.824;2023-11-19T08:03:59;38.78;;;6.38;;
60502;SDS011;51448;51.660;5.824;2023-11-19T08:06:29;42.05;;;7.07;;
60502;SDS011;51448;51.660;5.824;2023-11-19T08:08:57;43.17;;;7.43;;
60502;SDS011;51448;51.660;5.824;2023-11-19T08:11:25;32.22;;;5.80;;
60502;SDS011;51448;51.660;5.824;2023-11-19T08:13:52;36.83;;;5.90;;
60502;SDS011;51448;51.660;5.824;2023-11-19T08:16:21;33.92;;;6.97;;
60502;SDS011;51448;51.660;5.824;2023-11-19T08:18:49;36.72;;;7.47;;
60502;SDS011;51448;51.660;5.824;2023-11-19T08:21:16;36.67;;;7.15;;
60502;SDS011;51448;51.660;5.824;2023-11-19T08:23:44;42.45;;;7.93;;
60502;SDS011;51448;51.660;5.824;2023-11-19T08:26:11;36.40;;;7.13;;
60502;SDS011;51448;51.660;5.824;2023-11-19T08:28:39;48.70;;;7.00;;
60502;SDS011;51448;51.660;5.824;2023-11-19T08:31:07;36.47;;;6.75;;
60502;SDS011;51448;51.660;5.824;2023-11-19T08:33:35;46.47;;;7.38;;
60502;SDS011;51448;51.660;5.824;2023-11-19T08:36:03;36.17;;;5.97;;
60502;SDS011;51448;51.660;5.824;2023-11-19T08:38:31;29.63;;;5.93;;
60502;SDS011;51448;51.660;5.824;2023-11-19T08:40:59;38.17;;;6.53;;
60502;SDS011;51448;51.660;5.824;2023-11-19T08:43:28;36.53;;;7.45;;
60502;SDS011;51448;51.660;5.824;2023-11-19T08:45:58;31.70;;;6.60;;
60502;SDS011;51448;51.660;5.824;2023-11-19T08:48:25;37.58;;;7.30;;
60502;SDS011;51448;51.660;5.824;2023-11-19T08:50:53;36.00;;;7.05;;
60502;SDS011;51448;51.660;5.824;2023-11-19T08:53:21;39.47;;;6.03;;
60502;SDS011;51448;51.660;5.824;2023-11-19T08:55:48;33.72;;;7.28;;
60502;SDS011;51448;51.660;5.824;2023-11-19T08:58:16;33.83;;;7.32;;
60502;SDS011;51448;51.660;5.824;2023-11-19T09:00:45;30.92;;;6.57;;
60502;SDS011;51448;51.660;5.824;2023-11-19T09:03:12;27.25;;;5.50;;
60502;SDS011;51448;51.660;5.824;2023-11-19T09:05:40;38.45;;;7.97;;
60502;SDS011;51448;51.660;5.824;2023-11-19T09:08:08;36.10;;;7.05;;
60502;SDS011;51448;51.660;5.824;2023-11-19T09:10:36;32.30;;;6.75;;
60502;SDS011;51448;51.660;5.824;2023-11-19T09:13:03;33.00;;;7.03;;
60502;SDS011;51448;51.660;5.824;2023-11-19T09:15:31;29.35;;;6.13;;
60502;SDS011;51448;51.660;5.824;2023-11-19T09:17:59;36.63;;;7.30;;
60502;SDS011;51448;51.660;5.824;2023-11-19T09:20:26;32.50;;;6.93;;
60502;SDS011;51448;51.660;5.824;2023-11-19T09:22:54;40.38;;;7.32;;
60502;SDS011;51448;51.660;5.824;2023-11-19T09:25:21;32.47;;;6.88;;
60502;SDS011;51448;51.660;5.824;2023-11-19T09:27:49;28.38;;;5.78;;
60502;SDS011;51448;51.660;5.824;2023-11-19T09:30:17;37.60;;;7.85;;
60502;SDS011;51448;51.660;5.824;2023-11-19T09:32:44;31.85;;;6.00;;
60502;SDS011;51448;51.660;5.824;2023-11-19T09:35:12;32.88;;;8.15;;
60502;SDS011;51448;51.660;5.824;2023-11-19T09:37:42;40.78;;;7.90;;
60502;SDS011;51448;51.660;5.824;2023-11-19T09:40:11;33.45;;;6.68;;
60502;SDS011;51448;51.660;5.824;2023-11-19T09:42:45;43.75;;;6.63;;
60502;SDS011;51448;51.660;5.824;2023-11-19T09:45:13;38.05;;;7.57;;
60502;SDS011;51448;51.660;5.824;2023-11-19T09:47:43;33.70;;;6.50;;
60502;SDS011;51448;51.660;5.824;2023-11-19T09:50:19;32.22;;;7.40;;
60502;SDS011;51448;51.660;5.824;2023-11-19T09:52:47;38.88;;;7.28;;
60502;SDS011;51448;51.660;5.824;2023-11-19T09:55:15;29.00;;;6.97;;
60502;SDS011;51448;51.660;5.824;2023-11-19T09:57:42;36.83;;;7.07;;
60502;SDS011;51448;51.660;5.824;2023-11-19T10:00:12;45.50;;;7.57;;
60502;SDS011;51448;51.660;5.824;2023-11-19T10:02:43;31.92;;;6.90;;
60502;SDS011;51448;51.660;5.824;2023-11-19T10:05:14;33.60;;;7.07;;
60502;SDS011;51448;51.660;5.824;2023-11-19T10:07:43;32.90;;;7.05;;
60502;SDS011;51448;51.660;5.824;2023-11-19T10:10:12;35.13;;;7.90;;
60502;SDS011;51448;51.660;5.824;2023-11-19T10:12:45;36.67;;;6.60;;
60502;SDS011;51448;51.660;5.824;2023-11-19T10:15:23;33.53;;;7.22;;
60502;SDS011;51448;51.660;5.824;2023-11-19T10:17:57;37.42;;;7.43;;
60502;SDS011;51448;51.660;5.824;2023-11-19T10:20:26;31.27;;;6.88;;
60502;SDS011;51448;51.660;5.824;2023-11-19T10:22:54;34.03;;;6.88;;
60502;SDS011;51448;51.660;5.824;2023-11-19T10:25:26;25.13;;;5.05;;
60502;SDS011;51448;51.660;5.824;2023-11-19T10:27:56;33.40;;;7.10;;
60502;SDS011;51448;51.660;5.824;2023-11-19T10:30:25;37.42;;;7.22;;
60502;SDS011;51448;51.660;5.824;2023-11-19T10:33:03;31.25;;;6.70;;
60502;SDS011;51448;51.660;5.824;2023-11-19T10:35:52;36.50;;;8.45;;
60502;SDS011;51448;51.660;5.824;2023-11-19T10:38:26;43.78;;;9.15;;
60502;SDS011;51448;51.660;5.824;2023-11-19T10:40:54;34.20;;;7.35;;
60502;SDS011;51448;51.660;5.824;2023-11-19T10:43:22;30.65;;;6.32;;
60502;SDS011;51448;51.660;5.824;2023-11-19T10:45:51;28.27;;;5.97;;
60502;SDS011;51448;51.660;5.824;2023-11-19T10:48:20;42.17;;;7.45;;
60502;SDS011;51448;51.660;5.824;2023-11-19T10:50:53;35.42;;;7.57;;
60502;SDS011;51448;51.660;5.824;2023-11-19T10:53:24;39.22;;;7.78;;
60502;SDS011;51448;51.660;5.824;2023-11-19T10:55:53;31.20;;;6.78;;
60502;SDS011;51448;51.660;5.824;2023-11-19T10:58:25;32.50;;;7.63;;
60502;SDS011;51448;51.660;5.824;2023-11-19T11:00:57;36.05;;;7.05;;
60502;SDS011;51448;51.660;5.824;2023-11-19T11:03:36;32.10;;;6.25;;
60502;SDS011;51448;51.660;5.824;2023-11-19T11:06:09;39.55;;;6.28;;
60502;SDS011;51448;51.660;5.824;2023-11-19T11:08:40;31.83;;;5.97;;
60502;SDS011;51448;51.660;5.824;2023-11-19T11:11:08;34.72;;;5.88;;
60502;SDS011;51448;51.660;5.824;2023-11-19T11:13:44;25.08;;;6.00;;
60502;SDS011;51448;51.660;5.824;2023-11-19T11:16:14;37.65;;;8.27;;
60502;SDS011;51448;51.660;5.824;2023-11-19T11:18:46;45.08;;;7.28;;
60502;SDS011;51448;51.660;5.824;2023-11-19T11:21:20;33.80;;;6.35;;
60502;SDS011;51448;51.660;5.824;2023-11-19T11:33:03;32.00;;;6.13;;
60502;SDS011;51448;51.660;5.824;2023-11-19T11:36:03;31.40;;;5.05;;
60502;SDS011;51448;51.660;5.824;2023-11-19T11:38:55;32.83;;;6.70;;
60502;SDS011;51448;51.660;5.824;2023-11-19T11:41:35;29.90;;;6.93;;
60502;SDS011;51448;51.660;5.824;2023-11-19T11:44:02;25.98;;;5.70;;
60502;SDS011;51448;51.660;5.824;2023-11-19T11:49:07;30.85;;;5.75;;
60502;SDS011;51448;51.660;5.824;2023-11-19T11:57:06;25.92;;;4.88;;
60502;SDS011;51448;51.660;5.824;2023-11-19T11:59:49;27.27;;;5.47;;
60502;SDS011;51448;51.660;5.824;2023-11-19T12:02:18;23.10;;;5.50;;
60502;SDS011;51448;51.660;5.824;2023-11-19T12:04:50;31.08;;;5.97;;
60502;SDS011;51448;51.660;5.824;2023-11-19T12:07:21;18.60;;;4.60;;
60502;SDS011;51448;51.660;5.824;2023-11-19T12:10:05;19.08;;;4.63;;
60502;SDS011;51448;51.660;5.824;2023-11-19T12:12:35;18.60;;;3.92;;
60502;SDS011;51448;51.660;5.824;2023-11-19T12:15:08;18.30;;;4.07;;
60502;SDS011;51448;51.660;5.824;2023-11-19T12:17:40;20.98;;;4.88;;
60502;SDS011;51448;51.660;5.824;2023-11-19T12:20:17;25.35;;;5.55;;
60502;SDS011;51448;51.660;5.824;2023-11-19T12:22:50;22.73;;;4.53;;
60502;SDS011;51448;51.660;5.824;2023-11-19T12:25:20;27.55;;;5.45;;
60502;SDS011;51448;51.660;5.824;2023-11-19T12:27:49;22.95;;;4.85;;
60502;SDS011;51448;51.660;5.824;2023-11-19T12:32:54;25.73;;;5.57;;
60502;SDS011;51448;51.660;5.824;2023-11-19T12:35:22;27.08;;;5.78;;
60502;SDS011;51448;51.660;5.824;2023-11-19T12:37:51;25.15;;;4.57;;
60502;SDS011;51448;51.660;5.824;2023-11-19T12:40:21;22.55;;;5.35;;
60502;SDS011;51448;51.660;5.824;2023-11-19T12:42:53;25.40;;;4.95;;
60502;SDS011;51448;51.660;5.824;2023-11-19T12:45:23;23.30;;;4.07;;
60502;SDS011;51448;51.660;5.824;2023-11-19T12:48:07;26.08;;;5.40;;
60502;SDS011;51448;51.660;5.824;2023-11-19T12:50:53;23.23;;;5.93;;
60502;SDS011;51448;51.660;5.824;2023-11-19T12:53:26;26.33;;;5.18;;
60502;SDS011;51448;51.660;5.824;2023-11-19T12:55:54;22.90;;;4.63;;
60502;SDS011;51448;51.660;5.824;2023-11-19T13:01:04;25.40;;;5.35;;
60502;SDS011;51448;51.660;5.824;2023-11-19T13:03:37;28.17;;;5.68;;
60502;SDS011;51448;51.660;5.824;2023-11-19T13:06:07;26.90;;;5.07;;
60502;SDS011;51448;51.660;5.824;2023-11-19T13:08:44;27.60;;;4.30;;
60502;SDS011;51448;51.660;5.824;2023-11-19T13:11:32;21.90;;;5.40;;
60502;SDS011;51448;51.660;5.824;2023-11-19T13:14:03;30.13;;;6.55;;
60502;SDS011;51448;51.660;5.824;2023-11-19T13:16:33;24.88;;;5.45;;
60502;SDS011;51448;51.660;5.824;2023-11-19T13:19:00;29.02;;;5.90;;
60502;SDS011;51448;51.660;5.824;2023-11-19T13:21:28;31.85;;;6.40;;
60502;SDS011;51448;51.660;5.824;2023-11-19T13:23:59;29.85;;;5.70;;
60502;SDS011;51448;51.660;5.824;2023-11-19T13:26:27;27.55;;;5.70;;
60502;SDS011;51448;51.660;5.824;2023-11-19T13:28:55;27.02;;;6.20;;
60502;SDS011;51448;51.660;5.824;2023-11-19T13:31:22;30.63;;;6.65;;
60502;SDS011;51448;51.660;5.824;2023-11-19T13:33:50;25.42;;;5.78;;
60502;SDS011;51448;51.660;5.824;2023-11-19T13:36:18;27.83;;;5.45;;
60502;SDS011;51448;51.660;5.824;2023-11-19T13:38:47;21.40;;;5.03;;
60502;SDS011;51448;51.660;5.824;2023-11-19T13:41:15;28.92;;;5.50;;
60502;SDS011;51448;51.660;5.824;2023-11-19T13:43:43;27.83;;;6.93;;
60502;SDS011;51448;51.660;5.824;2023-11-19T13:46:11;20.38;;;5.22;;
60502;SDS011;51448;51.660;5.824;2023-11-19T13:48:39;26.70;;;4.78;;
60502;SDS011;51448;51.660;5.824;2023-11-19T13:51:07;23.20;;;5.25;;
60502;SDS011;51448;51.660;5.824;2023-11-19T13:53:37;22.08;;;4.85;;
60502;SDS011;51448;51.660;5.824;2023-11-19T13:56:07;22.90;;;4.65;;
60502;SDS011;51448;51.660;5.824;2023-11-19T13:58:35;22.02;;;5.22;;
60502;SDS011;51448;51.660;5.824;2023-11-19T14:01:04;18.52;;;4.13;;
60502;SDS011;51448;51.660;5.824;2023-11-19T14:03:32;20.55;;;5.13;;
60502;SDS011;51448;51.660;5.824;2023-11-19T14:06:02;22.65;;;4.55;;
60502;SDS011;51448;51.660;5.824;2023-11-19T14:08:30;25.30;;;4.28;;
60502;SDS011;51448;51.660;5.824;2023-11-19T14:10:57;25.73;;;4.82;;
60502;SDS011;51448;51.660;5.824;2023-11-19T14:13:25;25.13;;;4.55;;
60502;SDS011;51448;51.660;5.824;2023-11-19T14:15:53;21.17;;;4.63;;
60502;SDS011;51448;51.660;5.824;2023-11-19T14:18:21;21.20;;;4.82;;
60502;SDS011;51448;51.660;5.824;2023-11-19T14:20:48;22.10;;;4.32;;
60502;SDS011;51448;51.660;5.824;2023-11-19T14:23:16;22.50;;;4.38;;
60502;SDS011;51448;51.660;5.824;2023-11-19T14:25:43;19.80;;;4.53;;
60502;SDS011;51448;51.660;5.824;2023-11-19T14:28:12;28.90;;;5.95;;
60502;SDS011;51448;51.660;5.824;2023-11-19T14:30:39;24.77;;;5.03;;
60502;SDS011;51448;51.660;5.824;2023-11-19T14:33:08;17.42;;;4.50;;
60502;SDS011;51448;51.660;5.824;2023-11-19T14:35:36;19.73;;;4.32;;
60502;SDS011;51448;51.660;5.824;2023-11-19T14:38:04;22.48;;;4.63;;
60502;SDS011;51448;51.660;5.824;2023-11-19T14:40:34;19.75;;;4.80;;
60502;SDS011;51448;51.660;5.824;2023-11-19T14:43:05;21.75;;;4.03;;
60502;SDS011;51448;51.660;5.824;2023-11-19T14:45:32;24.33;;;5.75;;
60502;SDS011;51448;51.660;5.824;2023-11-19T14:48:11;21.35;;;4.25;;
60502;SDS011;51448;51.660;5.824;2023-11-19T14:50:38;21.17;;;4.60;;
60502;SDS011;51448;51.660;5.824;2023-11-19T14:53:06;20.02;;;4.50;;
60502;SDS011;51448;51.660;5.824;2023-11-19T14:55:34;23.13;;;4.72;;
60502;SDS011;51448;51.660;5.824;2023-11-19T14:58:01;21.05;;;5.28;;
60502;SDS011;51448;51.660;5.824;2023-11-19T15:00:36;16.38;;;4.00;;
60502;SDS011;51448;51.660;5.824;2023-11-19T15:03:04;21.45;;;4.00;;
60502;SDS011;51448;51.660;5.824;2023-11-19T15:05:33;21.25;;;4.15;;
60502;SDS011;51448;51.660;5.824;2023-11-19T15:08:01;21.60;;;4.75;;
60502;SDS011;51448;51.660;5.824;2023-11-19T15:10:30;25.88;;;4.75;;
60502;SDS011;51448;51.660;5.824;2023-11-19T15:12:58;18.52;;;3.65;;
60502;SDS011;51448;51.660;5.824;2023-11-19T15:15:25;13.40;;;2.97;;
60502;SDS011;51448;51.660;5.824;2023-11-19T15:17:56;20.63;;;4.15;;
60502;SDS011;51448;51.660;5.824;2023-11-19T15:20:23;14.10;;;3.50;;